Time,TemperatureF,DewpointF,PressureIn,WindDirection,WindDirectionDegrees,WindSpeedMPH,WindSpeedGustMPH,Humidity,HourlyPrecipIn,Conditions,Clouds,dailyrainin,SoftwareType,DateUTC
2013-01-23 00:02:00,59.4,39.1,30.13,North,353,0.0,0.0,47,0.00,,,0.00,WUHU216WMR968SP,2013-01-23 08:02:00,
2013-01-23 00:07:00,59.2,38.9,30.13,North,353,0.0,0.0,47,0.00,,,0.00,WUHU216WMR968SP,2013-01-23 08:07:00,
2013-01-23 00:13:00,59.2,38.9,30.13,North,353,0.0,0.0,47,0.00,,,0.00,WUHU216WMR968SP,2013-01-23 08:13:00,
2013-01-23 00:18:00,59.4,39.1,30.13,North,353,0.0,0.0,47,0.00,,,0.00,WUHU216WMR968SP,2013-01-23 08:18:00,
2013-01-23 00:23:00,59.4,39.1,30.13,North,353,0.0,0.0,47,0.00,,,0.00,WUHU216WMR968SP,2013-01-23 08:23:00,
2013-01-23 00:28:00,59.7,39.4,30.13,North,353,0.0,0.0,47,0.00,,,0.00,WUHU216WMR968SP,2013-01-23 08:28:00,
2013-01-23 00:33:00,59.9,39.6,30.13,North,353,0.0,0.0,47,0.00,,,0.00,WUHU216WMR968SP,2013-01-23 08:33:00,
2013-01-23 00:38:00,60.1,39.8,30.13,North,353,0.0,0.0,47,0.00,,,0.00,WUHU216WMR968SP,2013-01-23 08:38:00,
2013-01-23 00:43:00,59.9,39.6,30.13,North,353,0.0,0.0,47,0.00,,,0.00,WUHU216WMR968SP,2013-01-23 08:43:00,
2013-01-23 00:48:00,59.9,39.6,30.13,North,353,0.0,0.0,47,0.00,,,0.00,WUHU216WMR968SP,2013-01-23 08:48:00,
2013-01-23 00:53:00,60.3,39.9,30.13,East,84,0.0,0.0,47,0.00,,,0.00,WUHU216WMR968SP,2013-01-23 08:53:00,
2013-01-23 00:58:00,61.0,40.0,30.13,ENE,75,0.0,3.6,46,0.00,,,0.00,WUHU216WMR968SP,2013-01-23 08:58:00,
2013-01-23 01:03:00,62.1,41.0,30.13,East,99,0.0,3.6,46,0.00,,,0.00,WUHU216WMR968SP,2013-01-23 09:03:00,
2013-01-23 01:08:00,63.0,41.8,30.13,NNW,341,2.2,4.9,46,0.00,,,0.00,WUHU216WMR968SP,2013-01-23 09:08:00,
2013-01-23 01:13:00,63.5,42.3,30.13,South,172,2.7,4.9,46,0.00,,,0.00,WUHU216WMR968SP,2013-01-23 09:13:00,
2013-01-23 01:19:00,63.9,42.7,30.13,North,357,0.0,4.9,46,0.00,,,0.00,WUHU216WMR968SP,2013-01-23 09:19:00,
2013-01-23 01:28:00,63.9,42.7,30.13,SW,231,0.0,3.1,46,0.00,,,0.00,WUHU216WMR968SP,2013-01-23 09:28:00,
2013-01-23 01:33:00,63.3,42.1,30.13,West,261,0.0,3.1,46,0.00,,,0.00,WUHU216WMR968SP,2013-01-23 09:33:00,
2013-01-23 01:38:00,62.4,41.3,30.13,WNW,297,0.0,2.7,46,0.00,,,0.00,WUHU216WMR968SP,2013-01-23 09:38:00,
2013-01-23 01:43:00,61.9,40.8,30.13,North,0,0.0,3.1,46,0.00,,,0.00,WUHU216WMR968SP,2013-01-23 09:43:00,
2013-01-23 01:48:00,61.3,40.3,30.13,ENE,75,0.0,3.1,46,0.00,,,0.00,WUHU216WMR968SP,2013-01-23 09:48:00,
2013-01-23 01:53:00,61.5,40.5,30.13,SE,128,2.2,4.0,46,0.00,,,0.00,WUHU216WMR968SP,2013-01-23 09:53:00,
2013-01-23 01:58:00,61.7,40.7,30.13,SE,127,0.0,4.0,46,0.00,,,0.00,WUHU216WMR968SP,2013-01-23 09:58:00,
2013-01-23 02:03:00,61.7,40.7,30.13,SE,127,0.0,3.1,46,0.00,,,0.00,WUHU216WMR968SP,2013-01-23 10:03:00,
2013-01-23 02:08:00,61.7,40.7,30.13,SE,128,0.0,3.1,46,0.00,,,0.00,WUHU216WMR968SP,2013-01-23 10:08:00,
2013-01-23 02:13:00,61.3,40.3,30.13,NNW,338,0.0,3.6,46,0.00,,,0.00,WUHU216WMR968SP,2013-01-23 10:13:00,
2013-01-23 02:18:00,61.3,40.3,30.13,NNW,338,0.0,3.6,46,0.00,,,0.00,WUHU216WMR968SP,2013-01-23 10:18:00,
2013-01-23 02:23:00,61.3,40.3,30.13,NW,316,0.0,4.0,46,0.00,,,0.00,WUHU216WMR968SP,2013-01-23 10:23:00,
2013-01-23 02:28:00,61.3,40.3,30.13,NNW,346,2.2,4.0,46,0.00,,,0.00,WUHU216WMR968SP,2013-01-23 10:28:00,
2013-01-23 02:33:00,61.5,40.5,30.13,WNW,299,2.2,3.6,46,0.00,,,0.00,WUHU216WMR968SP,2013-01-23 10:33:00,
2013-01-23 02:38:00,61.5,40.5,30.13,North,3,0.0,3.6,46,0.00,,,0.00,WUHU216WMR968SP,2013-01-23 10:38:00,
2013-01-23 02:43:00,61.3,40.3,30.13,North,3,0.0,2.2,46,0.00,,,0.00,WUHU216WMR968SP,2013-01-23 10:43:00,
2013-01-23 02:48:00,61.2,40.2,30.13,North,3,0.0,0.0,46,0.00,,,0.00,WUHU216WMR968SP,2013-01-23 10:48:00,
2013-01-23 02:53:00,60.8,39.8,30.13,North,3,0.0,0.0,46,0.00,,,0.00,WUHU216WMR968SP,2013-01-23 10:53:00,
2013-01-23 02:58:00,60.4,40.0,30.13,NNW,339,0.0,0.0,47,0.00,,,0.00,WUHU216WMR968SP,2013-01-23 10:58:00,
2013-01-23 03:03:00,60.4,40.0,30.13,North,353,0.0,0.0,47,0.00,,,0.00,WUHU216WMR968SP,2013-01-23 11:03:00,
2013-01-23 03:09:00,60.3,39.9,30.13,North,353,0.0,0.0,47,0.00,,,0.00,WUHU216WMR968SP,2013-01-23 11:09:00,
2013-01-23 03:14:00,59.7,39.4,30.13,NNW,335,0.0,0.0,47,0.00,,,0.00,WUHU216WMR968SP,2013-01-23 11:14:00,
2013-01-23 03:19:00,59.4,39.1,30.13,NNW,336,0.0,0.0,47,0.00,,,0.00,WUHU216WMR968SP,2013-01-23 11:19:00,
2013-01-23 03:24:00,59.2,38.9,30.13,NNW,335,0.0,0.0,47,0.00,,,0.00,WUHU216WMR968SP,2013-01-23 11:24:00,
2013-01-23 03:29:00,59.0,38.7,30.13,NNW,335,0.0,0.0,47,0.00,,,0.00,WUHU216WMR968SP,2013-01-23 11:29:00,
2013-01-23 03:34:00,58.8,38.6,30.13,NNW,335,0.0,0.0,47,0.00,,,0.00,WUHU216WMR968SP,2013-01-23 11:34:00,
2013-01-23 03:39:00,59.2,38.9,30.13,NNW,338,0.0,0.0,47,0.00,,,0.00,WUHU216WMR968SP,2013-01-23 11:39:00,
2013-01-23 03:44:00,59.7,39.4,30.13,NNW,340,0.0,0.0,47,0.00,,,0.00,WUHU216WMR968SP,2013-01-23 11:44:00,
2013-01-23 03:49:00,60.3,39.9,30.13,NNW,340,0.0,0.0,47,0.00,,,0.00,WUHU216WMR968SP,2013-01-23 11:49:00,
2013-01-23 03:54:00,60.4,40.0,30.13,NNW,340,0.0,0.0,47,0.00,,,0.00,WUHU216WMR968SP,2013-01-23 11:54:00,
2013-01-23 03:59:00,60.3,39.9,30.13,NNW,336,0.0,0.0,47,0.00,,,0.00,WUHU216WMR968SP,2013-01-23 11:59:00,
2013-01-23 04:04:00,60.3,39.9,30.10,NW,323,0.0,2.7,47,0.00,,,0.00,WUHU216WMR968SP,2013-01-23 12:04:00,
2013-01-23 04:09:00,60.3,39.9,30.10,NW,323,0.0,2.7,47,0.00,,,0.00,WUHU216WMR968SP,2013-01-23 12:09:00,
2013-01-23 04:15:00,60.1,39.8,30.10,NW,324,0.0,0.0,47,0.00,,,0.00,WUHU216WMR968SP,2013-01-23 12:15:00,
2013-01-23 04:20:00,60.1,39.8,30.10,NNE,24,0.0,0.0,47,0.00,,,0.00,WUHU216WMR968SP,2013-01-23 12:20:00,
2013-01-23 04:25:00,60.6,40.2,30.10,NNW,327,0.0,0.0,47,0.00,,,0.00,WUHU216WMR968SP,2013-01-23 12:25:00,
2013-01-23 04:30:00,60.8,39.8,30.10,West,263,0.0,4.0,46,0.00,,,0.00,WUHU216WMR968SP,2013-01-23 12:30:00,
2013-01-23 04:35:00,61.2,40.2,30.10,SE,146,2.2,4.0,46,0.00,,,0.00,WUHU216WMR968SP,2013-01-23 12:35:00,
2013-01-23 04:40:00,62.4,41.3,30.10,North,353,0.0,4.9,46,0.00,,,0.00,WUHU216WMR968SP,2013-01-23 12:40:00,
2013-01-23 04:45:00,64.2,42.9,30.10,ESE,119,0.0,4.9,46,0.00,,,0.00,WUHU216WMR968SP,2013-01-23 12:45:00,
2013-01-23 04:50:00,66.2,44.2,30.10,WNW,297,2.2,4.0,45,0.00,,,0.00,WUHU216WMR968SP,2013-01-23 12:50:00,
2013-01-23 04:55:00,66.4,44.4,30.10,SE,145,0.0,4.0,45,0.00,,,0.00,WUHU216WMR968SP,2013-01-23 12:55:00,
2013-01-23 05:00:00,66.2,44.2,30.10,SSW,208,2.7,4.9,45,0.00,,,0.00,WUHU216WMR968SP,2013-01-23 13:00:00,
2013-01-23 05:05:00,66.0,44.0,30.10,ENE,58,0.0,4.9,45,0.00,,,0.00,WUHU216WMR968SP,2013-01-23 13:05:00,
2013-01-23 05:10:00,66.4,44.4,30.10,SSE,154,2.2,5.8,45,0.00,,,0.00,WUHU216WMR968SP,2013-01-23 13:10:00,
2013-01-23 05:15:00,66.4,44.4,30.10,WSW,245,0.0,5.8,45,0.00,,,0.00,WUHU216WMR968SP,2013-01-23 13:15:00,
2013-01-23 05:20:00,66.0,44.0,30.10,West,263,0.0,4.0,45,0.00,,,0.00,WUHU216WMR968SP,2013-01-23 13:20:00,
2013-01-23 05:25:00,65.8,43.8,30.10,WSW,245,2.7,4.0,45,0.00,,,0.00,WUHU216WMR968SP,2013-01-23 13:25:00,
2013-01-23 05:30:00,65.1,43.2,30.10,NW,311,0.0,4.0,45,0.00,,,0.00,WUHU216WMR968SP,2013-01-23 13:30:00,
2013-01-23 05:35:00,64.8,42.9,30.10,WNW,301,2.2,3.6,45,0.00,,,0.00,WUHU216WMR968SP,2013-01-23 13:35:00,
2013-01-23 05:40:00,64.2,42.9,30.10,NW,305,0.0,3.6,46,0.00,,,0.00,WUHU216WMR968SP,2013-01-23 13:40:00,
2013-01-23 05:45:00,63.9,42.7,30.10,NW,305,0.0,3.1,46,0.00,,,0.00,WUHU216WMR968SP,2013-01-23 13:45:00,
2013-01-23 05:50:00,63.5,42.3,30.10,NW,305,0.0,0.0,46,0.00,,,0.00,WUHU216WMR968SP,2013-01-23 13:50:00,
2013-01-23 05:55:00,63.5,42.3,30.10,NW,305,0.0,0.0,46,0.00,,,0.00,WUHU216WMR968SP,2013-01-23 13:55:00,
2013-01-23 06:00:00,63.0,41.8,30.10,NW,324,0.0,0.0,46,0.00,,,0.00,WUHU216WMR968SP,2013-01-23 14:00:00,
2013-01-23 06:05:00,62.6,41.5,30.10,NW,310,0.0,3.6,46,0.00,,,0.00,WUHU216WMR968SP,2013-01-23 14:05:00,
2013-01-23 06:10:00,62.2,41.1,30.10,NW,312,0.0,3.6,46,0.00,,,0.00,WUHU216WMR968SP,2013-01-23 14:10:00,
2013-01-23 06:15:00,62.2,41.1,30.10,NW,312,0.0,0.0,46,0.00,,,0.00,WUHU216WMR968SP,2013-01-23 14:15:00,
2013-01-23 06:20:00,62.4,41.3,30.10,North,357,0.0,0.0,46,0.00,,,0.00,WUHU216WMR968SP,2013-01-23 14:20:00,
2013-01-23 06:25:00,63.1,41.9,30.10,NE,43,0.0,4.5,46,0.00,,,0.00,WUHU216WMR968SP,2013-01-23 14:25:00,
2013-01-23 06:30:00,63.9,42.7,30.10,NNE,28,0.0,4.5,46,0.00,,,0.00,WUHU216WMR968SP,2013-01-23 14:30:00,
2013-01-23 06:35:00,65.1,43.2,30.10,SSE,157,3.1,4.9,45,0.00,,,0.00,WUHU216WMR968SP,2013-01-23 14:35:00,
2013-01-23 06:40:00,65.7,43.7,30.10,South,178,0.0,4.9,45,0.00,,,0.00,WUHU216WMR968SP,2013-01-23 14:40:00,
2013-01-23 06:45:00,65.7,43.7,30.10,WNW,288,0.0,3.1,45,0.00,,,0.00,WUHU216WMR968SP,2013-01-23 14:45:00,
2013-01-23 06:50:00,65.5,43.5,30.10,WNW,288,0.0,0.0,45,0.00,,,0.00,WUHU216WMR968SP,2013-01-23 14:50:00,
2013-01-23 06:55:00,65.5,43.5,30.10,East,99,0.0,4.0,45,0.00,,,0.00,WUHU216WMR968SP,2013-01-23 14:55:00,
2013-01-23 07:00:00,66.4,44.4,30.10,SSE,158,2.2,5.4,45,0.00,,,0.00,WUHU216WMR968SP,2013-01-23 15:00:00,
2013-01-23 07:05:00,67.6,45.5,30.10,NE,55,2.2,5.4,45,0.00,,,0.00,WUHU216WMR968SP,2013-01-23 15:05:00,
2013-01-23 07:11:00,68.7,46.5,30.10,ESE,109,2.2,5.4,45,0.00,,,0.00,WUHU216WMR968SP,2013-01-23 15:11:00,
2013-01-23 07:16:00,69.8,46.8,30.10,ESE,122,2.2,5.8,44,0.00,,,0.00,WUHU216WMR968SP,2013-01-23 15:16:00,
2013-01-23 07:21:00,70.2,47.2,30.13,WSW,252,2.2,5.8,44,0.00,,,0.00,WUHU216WMR968SP,2013-01-23 15:21:00,
2013-01-23 07:26:00,69.3,47.0,30.13,WSW,251,0.0,3.6,45,0.00,,,0.00,WUHU216WMR968SP,2013-01-23 15:26:00,
2013-01-23 07:31:00,67.5,45.4,30.13,West,275,0.0,2.2,45,0.00,,,0.00,WUHU216WMR968SP,2013-01-23 15:31:00,
2013-01-23 07:36:00,66.4,44.4,30.13,WNW,300,0.0,0.0,45,0.00,,,0.00,WUHU216WMR968SP,2013-01-23 15:36:00,
2013-01-23 07:41:00,66.2,44.2,30.13,NE,50,2.2,4.0,45,0.00,,,0.00,WUHU216WMR968SP,2013-01-23 15:41:00,
2013-01-23 07:46:00,67.1,45.0,30.13,SSE,164,0.0,4.0,45,0.00,,,0.00,WUHU216WMR968SP,2013-01-23 15:46:00,
2013-01-23 07:51:00,68.4,46.2,30.13,ESE,106,3.6,5.8,45,0.00,,,0.00,WUHU216WMR968SP,2013-01-23 15:51:00,
2013-01-23 07:56:00,69.4,47.1,30.13,East,85,0.0,5.8,45,0.00,,,0.00,WUHU216WMR968SP,2013-01-23 15:56:00,
2013-01-23 08:01:00,70.3,47.3,30.13,ESE,107,0.0,8.1,44,0.00,,,0.00,WUHU216WMR968SP,2013-01-23 16:01:00,
2013-01-23 08:06:00,71.1,48.0,30.10,NE,41,0.0,8.1,44,0.00,,,0.00,WUHU216WMR968SP,2013-01-23 16:06:00,
2013-01-23 08:11:00,71.4,48.3,30.10,ENE,72,2.2,6.3,44,0.00,,,0.00,WUHU216WMR968SP,2013-01-23 16:11:00,
2013-01-23 08:16:00,71.6,48.5,30.10,ENE,73,2.7,4.9,44,0.00,,,0.00,WUHU216WMR968SP,2013-01-23 16:16:00,
2013-01-23 08:21:00,72.0,48.9,30.13,East,97,3.6,6.3,44,0.00,,,0.00,WUHU216WMR968SP,2013-01-23 16:21:00,
2013-01-23 08:26:00,72.1,48.9,30.13,East,97,0.0,6.3,44,0.00,,,0.00,WUHU216WMR968SP,2013-01-23 16:26:00,
2013-01-23 08:31:00,72.3,49.1,30.13,East,87,3.1,5.4,44,0.00,,,0.00,WUHU216WMR968SP,2013-01-23 16:31:00,
2013-01-23 08:36:00,72.5,49.3,30.13,East,93,3.1,5.8,44,0.00,,,0.00,WUHU216WMR968SP,2013-01-23 16:36:00,
2013-01-23 08:41:00,72.5,49.3,30.13,East,84,3.1,5.8,44,0.00,,,0.00,WUHU216WMR968SP,2013-01-23 16:41:00,
2013-01-23 08:46:00,72.9,49.7,30.13,East,95,3.1,5.8,44,0.00,,,0.00,WUHU216WMR968SP,2013-01-23 16:46:00,
2013-01-23 08:51:00,73.0,49.8,30.13,NNE,29,4.5,7.6,44,0.00,,,0.00,WUHU216WMR968SP,2013-01-23 16:51:00,
2013-01-23 08:56:00,73.2,49.9,30.13,ESE,103,0.0,7.6,44,0.00,,,0.00,WUHU216WMR968SP,2013-01-23 16:56:00,
2013-01-23 09:01:00,73.6,49.7,30.13,ENE,78,4.5,7.6,43,0.00,,,0.00,WUHU216WMR968SP,2013-01-23 17:01:00,
2013-01-23 09:06:00,73.8,49.9,30.13,ESE,113,3.6,7.6,43,0.00,,,0.00,WUHU216WMR968SP,2013-01-23 17:06:00,
2013-01-23 09:11:00,73.9,49.9,30.13,East,85,4.5,7.6,43,0.00,,,0.00,WUHU216WMR968SP,2013-01-23 17:11:00,
2013-01-23 09:16:00,74.1,50.1,30.13,ESE,115,3.1,7.6,43,0.00,,,0.00,WUHU216WMR968SP,2013-01-23 17:16:00,
2013-01-23 09:21:00,74.3,50.3,30.13,SE,131,2.7,4.9,43,0.00,,,0.00,WUHU216WMR968SP,2013-01-23 17:21:00,
2013-01-23 09:26:00,74.5,50.5,30.13,ENE,77,4.0,6.3,43,0.00,,,0.00,WUHU216WMR968SP,2013-01-23 17:26:00,
2013-01-23 09:31:00,74.7,50.7,30.13,ENE,65,4.0,8.1,43,0.00,,,0.00,WUHU216WMR968SP,2013-01-23 17:31:00,
2013-01-23 09:36:00,74.8,50.8,30.13,ENE,76,2.2,8.1,43,0.00,,,0.00,WUHU216WMR968SP,2013-01-23 17:36:00,
2013-01-23 09:41:00,75.2,51.1,30.13,East,99,4.0,8.1,43,0.00,,,0.00,WUHU216WMR968SP,2013-01-23 17:41:00,
2013-01-23 09:46:00,75.4,51.3,30.13,ENE,76,4.0,8.3,43,0.00,,,0.00,WUHU216WMR968SP,2013-01-23 17:46:00,
2013-01-23 09:51:00,75.4,51.3,30.13,East,79,4.5,8.3,43,0.00,,,0.00,WUHU216WMR968SP,2013-01-23 17:51:00,
2013-01-23 09:56:00,75.4,51.3,30.13,East,81,4.5,8.7,43,0.00,,,0.00,WUHU216WMR968SP,2013-01-23 17:56:00,
2013-01-23 10:01:00,75.4,51.3,30.13,East,80,0.0,8.7,43,0.00,,,0.00,WUHU216WMR968SP,2013-01-23 18:01:00,
2013-01-23 10:06:00,75.6,51.5,30.13,ENE,69,3.6,7.6,43,0.00,,,0.00,WUHU216WMR968SP,2013-01-23 18:06:00,
2013-01-23 10:11:00,75.7,51.6,30.13,East,96,2.7,6.7,43,0.00,,,0.00,WUHU216WMR968SP,2013-01-23 18:11:00,
2013-01-23 10:16:00,75.7,51.6,30.13,ESE,104,3.1,6.7,43,0.00,,,0.00,WUHU216WMR968SP,2013-01-23 18:16:00,
2013-01-23 10:21:00,75.9,51.8,30.13,North,353,0.0,4.9,43,0.00,,,0.00,WUHU216WMR968SP,2013-01-23 18:21:00,
2013-01-23 10:26:00,75.9,51.8,30.13,NE,36,0.0,4.9,43,0.00,,,0.00,WUHU216WMR968SP,2013-01-23 18:26:00,
2013-01-23 10:31:00,75.9,51.8,30.13,NNE,31,0.0,4.0,43,0.00,,,0.00,WUHU216WMR968SP,2013-01-23 18:31:00,
2013-01-23 10:36:00,76.1,51.9,30.13,North,7,0.0,3.6,43,0.00,,,0.00,WUHU216WMR968SP,2013-01-23 18:36:00,
2013-01-23 10:41:00,76.1,51.9,30.13,NNE,32,0.0,6.3,43,0.00,,,0.00,WUHU216WMR968SP,2013-01-23 18:41:00,
2013-01-23 10:46:00,76.1,51.9,30.13,North,357,3.1,6.3,43,0.00,,,0.00,WUHU216WMR968SP,2013-01-23 18:46:00,
2013-01-23 10:51:00,75.9,51.8,30.13,North,4,0.0,4.0,43,0.00,,,0.00,WUHU216WMR968SP,2013-01-23 18:51:00,
2013-01-23 10:56:00,76.1,51.9,30.13,North,7,0.0,4.0,43,0.00,,,0.00,WUHU216WMR968SP,2013-01-23 18:56:00,
2013-01-23 11:01:00,76.1,51.9,30.13,NE,35,2.2,5.8,43,0.00,,,0.00,WUHU216WMR968SP,2013-01-23 19:01:00,
2013-01-23 11:06:00,76.1,51.9,30.13,ESE,119,4.9,5.8,43,0.00,,,0.00,WUHU216WMR968SP,2013-01-23 19:06:00,
2013-01-23 11:11:00,75.9,51.8,30.13,East,90,3.1,5.8,43,0.00,,,0.00,WUHU216WMR968SP,2013-01-23 19:11:00,
2013-01-23 11:16:00,75.9,51.8,30.13,East,89,0.0,4.9,43,0.00,,,0.00,WUHU216WMR968SP,2013-01-23 19:16:00,
2013-01-23 11:21:00,75.9,51.8,30.13,East,96,2.2,5.4,43,0.00,,,0.00,WUHU216WMR968SP,2013-01-23 19:21:00,
2013-01-23 11:26:00,75.9,51.8,30.13,SE,129,2.2,5.4,43,0.00,,,0.00,WUHU216WMR968SP,2013-01-23 19:26:00,
2013-01-23 11:31:00,76.1,51.9,30.13,NE,47,2.2,5.4,43,0.00,,,0.00,WUHU216WMR968SP,2013-01-23 19:31:00,
2013-01-23 11:36:00,76.3,52.1,30.10,ESE,120,4.0,5.8,43,0.00,,,0.00,WUHU216WMR968SP,2013-01-23 19:36:00,
2013-01-23 11:41:00,76.3,52.1,30.10,ENE,73,0.0,5.8,43,0.00,,,0.00,WUHU216WMR968SP,2013-01-23 19:41:00,
2013-01-23 11:46:00,76.5,52.3,30.10,East,101,0.0,4.0,43,0.00,,,0.00,WUHU216WMR968SP,2013-01-23 19:46:00,
2013-01-23 11:51:00,76.5,52.3,30.13,SE,135,0.0,0.0,43,0.00,,,0.00,WUHU216WMR968SP,2013-01-23 19:51:00,
2013-01-23 11:56:00,76.6,52.4,30.13,ESE,110,0.0,0.0,43,0.00,,,0.00,WUHU216WMR968SP,2013-01-23 19:56:00,
2013-01-23 12:01:00,76.8,52.6,30.13,East,81,0.0,0.0,43,0.00,,,0.00,WUHU216WMR968SP,2013-01-23 20:01:00,
2013-01-23 12:06:00,77.0,52.8,30.10,SE,128,0.0,0.0,43,0.00,,,0.00,WUHU216WMR968SP,2013-01-23 20:06:00,
2013-01-23 12:11:00,77.0,52.8,30.10,SE,131,0.0,0.0,43,0.00,,,0.00,WUHU216WMR968SP,2013-01-23 20:11:00,
2013-01-23 12:16:00,77.2,52.9,30.10,SSE,156,0.0,0.0,43,0.00,,,0.00,WUHU216WMR968SP,2013-01-23 20:16:00,
2013-01-23 12:21:00,77.2,52.9,30.10,ESE,115,0.0,0.0,43,0.00,,,0.00,WUHU216WMR968SP,2013-01-23 20:21:00,
2013-01-23 12:26:00,77.4,53.1,30.10,SE,131,0.0,0.0,43,0.00,,,0.00,WUHU216WMR968SP,2013-01-23 20:26:00,
2013-01-23 12:31:00,77.2,52.9,30.10,ESE,113,0.0,0.0,43,0.00,,,0.00,WUHU216WMR968SP,2013-01-23 20:31:00,
2013-01-23 12:36:00,77.2,52.9,30.10,SW,214,0.0,0.0,43,0.00,,,0.00,WUHU216WMR968SP,2013-01-23 20:36:00,
2013-01-23 12:41:00,77.2,52.9,30.10,SW,214,0.0,0.0,43,0.00,,,0.00,WUHU216WMR968SP,2013-01-23 20:41:00,
2013-01-23 12:46:00,76.8,52.6,30.10,South,185,0.0,0.0,43,0.00,,,0.00,WUHU216WMR968SP,2013-01-23 20:46:00,
2013-01-23 12:51:00,76.6,52.4,30.10,SSW,203,0.0,0.0,43,0.00,,,0.00,WUHU216WMR968SP,2013-01-23 20:51:00,
2013-01-23 12:56:00,76.5,52.3,30.10,SW,220,0.0,0.0,43,0.00,,,0.00,WUHU216WMR968SP,2013-01-23 20:56:00,
2013-01-23 13:01:00,75.9,51.8,30.10,SSW,211,0.0,0.0,43,0.00,,,0.00,WUHU216WMR968SP,2013-01-23 21:01:00,
2013-01-23 13:06:00,75.9,51.8,30.10,SSE,157,0.0,0.0,43,0.00,,,0.00,WUHU216WMR968SP,2013-01-23 21:06:00,
2013-01-23 13:11:00,75.6,51.5,30.10,SW,234,0.0,0.0,43,0.00,,,0.00,WUHU216WMR968SP,2013-01-23 21:11:00,
2013-01-23 13:16:00,75.2,51.1,30.10,WSW,245,0.0,0.0,43,0.00,,,0.00,WUHU216WMR968SP,2013-01-23 21:16:00,
2013-01-23 13:21:00,74.7,50.7,30.10,SW,227,0.0,0.0,43,0.00,,,0.00,WUHU216WMR968SP,2013-01-23 21:21:00,
2013-01-23 13:26:00,74.5,50.5,30.10,SW,222,0.0,0.0,43,0.00,,,0.00,WUHU216WMR968SP,2013-01-23 21:26:00,
2013-01-23 13:31:00,74.5,50.5,30.10,WSW,245,0.0,0.0,43,0.00,,,0.00,WUHU216WMR968SP,2013-01-23 21:31:00,
2013-01-23 13:36:00,74.3,50.3,30.10,SSW,203,0.0,0.0,43,0.00,,,0.00,WUHU216WMR968SP,2013-01-23 21:36:00,
2013-01-23 13:41:00,74.3,50.3,30.10,SSW,212,0.0,0.0,43,0.00,,,0.00,WUHU216WMR968SP,2013-01-23 21:41:00,
2013-01-23 13:46:00,74.1,50.1,30.10,South,176,0.0,0.0,43,0.00,,,0.00,WUHU216WMR968SP,2013-01-23 21:46:00,
2013-01-23 13:51:00,74.1,50.1,30.10,WSW,239,0.0,0.0,43,0.00,,,0.00,WUHU216WMR968SP,2013-01-23 21:51:00,
2013-01-23 13:56:00,73.8,49.9,30.10,SSW,194,0.0,0.0,43,0.00,,,0.00,WUHU216WMR968SP,2013-01-23 21:56:00,
2013-01-23 14:01:00,73.6,49.7,30.10,SSW,204,0.0,0.0,43,0.00,,,0.00,WUHU216WMR968SP,2013-01-23 22:01:00,
2013-01-23 14:06:00,73.2,49.9,30.10,SSW,192,0.0,0.0,44,0.00,,,0.00,WUHU216WMR968SP,2013-01-23 22:06:00,
2013-01-23 14:13:00,72.9,49.7,30.10,SSW,209,0.0,0.0,44,0.00,,,0.00,WUHU216WMR968SP,2013-01-23 22:13:00,
2013-01-23 14:22:00,72.5,49.3,30.10,SSW,195,0.0,0.0,44,0.00,,,0.00,WUHU216WMR968SP,2013-01-23 22:22:00,
2013-01-23 14:27:00,72.3,49.1,30.10,South,190,0.0,0.0,44,0.00,,,0.00,WUHU216WMR968SP,2013-01-23 22:27:00,
2013-01-23 14:32:00,72.3,49.1,30.10,SSW,196,0.0,0.0,44,0.00,,,0.00,WUHU216WMR968SP,2013-01-23 22:32:00,
2013-01-23 14:37:00,72.1,48.9,30.10,SSW,212,0.0,0.0,44,0.00,,,0.00,WUHU216WMR968SP,2013-01-23 22:37:00,
2013-01-23 14:42:00,72.1,48.9,30.10,SSW,208,0.0,0.0,44,0.00,,,0.00,WUHU216WMR968SP,2013-01-23 22:42:00,
2013-01-23 14:47:00,72.1,48.9,30.10,SSW,209,0.0,0.0,44,0.00,,,0.00,WUHU216WMR968SP,2013-01-23 22:47:00,
2013-01-23 14:52:00,72.1,48.9,30.10,SSW,208,0.0,0.0,44,0.00,,,0.00,WUHU216WMR968SP,2013-01-23 22:52:00,
2013-01-23 14:57:00,72.0,48.9,30.10,SSW,208,0.0,0.0,44,0.00,,,0.00,WUHU216WMR968SP,2013-01-23 22:57:00,
2013-01-23 15:02:00,72.0,48.9,30.10,SSW,209,0.0,0.0,44,0.00,,,0.00,WUHU216WMR968SP,2013-01-23 23:02:00,
2013-01-23 15:07:00,72.0,48.9,30.10,SSW,209,0.0,0.0,44,0.00,,,0.00,WUHU216WMR968SP,2013-01-23 23:07:00,
2013-01-23 15:12:00,72.0,48.9,30.10,South,177,0.0,0.0,44,0.00,,,0.00,WUHU216WMR968SP,2013-01-23 23:12:00,
2013-01-23 15:17:00,72.0,48.9,30.10,SSW,203,0.0,0.0,44,0.00,,,0.00,WUHU216WMR968SP,2013-01-23 23:17:00,
2013-01-23 15:22:00,72.0,48.9,30.10,SSW,203,0.0,0.0,44,0.00,,,0.00,WUHU216WMR968SP,2013-01-23 23:22:00,
2013-01-23 15:27:00,71.8,48.7,30.10,SSW,210,0.0,0.0,44,0.00,,,0.00,WUHU216WMR968SP,2013-01-23 23:27:00,
2013-01-23 15:32:00,71.8,48.7,30.10,SSW,210,0.0,0.0,44,0.00,,,0.00,WUHU216WMR968SP,2013-01-23 23:32:00,
2013-01-23 15:37:00,71.6,48.5,30.10,SSW,208,0.0,0.0,44,0.00,,,0.00,WUHU216WMR968SP,2013-01-23 23:37:00,
2013-01-23 15:42:00,71.4,48.3,30.10,SW,226,0.0,0.0,44,0.00,,,0.00,WUHU216WMR968SP,2013-01-23 23:42:00,
2013-01-23 15:47:00,71.2,48.1,30.10,SSW,196,0.0,0.0,44,0.00,,,0.00,WUHU216WMR968SP,2013-01-23 23:47:00,
2013-01-23 15:52:00,71.1,48.0,30.10,SSW,196,0.0,0.0,44,0.00,,,0.00,WUHU216WMR968SP,2013-01-23 23:52:00,
2013-01-23 15:57:00,71.1,48.0,30.10,SSW,198,0.0,0.0,44,0.00,,,0.00,WUHU216WMR968SP,2013-01-23 23:57:00,
2013-01-23 16:02:00,70.9,47.8,30.10,SSW,198,0.0,0.0,44,0.00,,,0.00,WUHU216WMR968SP,2013-01-24 00:02:00,
2013-01-23 16:07:00,70.7,47.7,30.10,SSW,198,0.0,0.0,44,0.00,,,0.00,WUHU216WMR968SP,2013-01-24 00:07:00,
2013-01-23 16:12:00,70.7,47.7,30.10,SSW,198,0.0,0.0,44,0.00,,,0.00,WUHU216WMR968SP,2013-01-24 00:12:00,
2013-01-23 16:17:00,70.5,47.5,30.10,SW,225,0.0,0.0,44,0.00,,,0.00,WUHU216WMR968SP,2013-01-24 00:17:00,
2013-01-23 16:22:00,70.3,47.3,30.10,South,185,0.0,0.0,44,0.00,,,0.00,WUHU216WMR968SP,2013-01-24 00:22:00,
2013-01-23 16:27:00,70.0,47.0,30.10,SE,137,0.0,0.0,44,0.00,,,0.00,WUHU216WMR968SP,2013-01-24 00:27:00,
2013-01-23 16:32:00,69.6,47.3,30.10,SE,130,0.0,0.0,45,0.00,,,0.00,WUHU216WMR968SP,2013-01-24 00:32:00,
2013-01-23 16:37:00,69.4,47.1,30.13,ESE,112,0.0,0.0,45,0.00,,,0.00,WUHU216WMR968SP,2013-01-24 00:37:00,
2013-01-23 16:42:00,69.1,46.8,30.13,SSE,159,0.0,0.0,45,0.00,,,0.00,WUHU216WMR968SP,2013-01-24 00:42:00,
2013-01-23 16:47:00,68.9,46.6,30.13,SE,124,0.0,0.0,45,0.00,,,0.00,WUHU216WMR968SP,2013-01-24 00:47:00,
2013-01-23 16:52:00,68.7,46.5,30.13,ESE,105,0.0,0.0,45,0.00,,,0.00,WUHU216WMR968SP,2013-01-24 00:52:00,
2013-01-23 16:57:00,68.4,46.2,30.13,ESE,121,0.0,0.0,45,0.00,,,0.00,WUHU216WMR968SP,2013-01-24 00:57:00,
2013-01-23 17:02:00,68.2,46.0,30.13,ESE,115,0.0,0.0,45,0.00,,,0.00,WUHU216WMR968SP,2013-01-24 01:02:00,
2013-01-23 17:07:00,68.2,46.0,30.13,SE,142,0.0,0.0,45,0.00,,,0.00,WUHU216WMR968SP,2013-01-24 01:07:00,
2013-01-23 17:12:00,68.0,45.8,30.13,SE,142,0.0,0.0,45,0.00,,,0.00,WUHU216WMR968SP,2013-01-24 01:12:00,
2013-01-23 17:17:00,67.8,45.6,30.13,SE,142,0.0,0.0,45,0.00,,,0.00,WUHU216WMR968SP,2013-01-24 01:17:00,
2013-01-23 17:22:00,67.6,45.5,30.10,SSW,193,0.0,0.0,45,0.00,,,0.00,WUHU216WMR968SP,2013-01-24 01:22:00,
2013-01-23 17:27:00,67.5,45.4,30.10,SSW,196,0.0,0.0,45,0.00,,,0.00,WUHU216WMR968SP,2013-01-24 01:27:00,
2013-01-23 17:32:00,67.5,45.4,30.10,SE,144,0.0,0.0,45,0.00,,,0.00,WUHU216WMR968SP,2013-01-24 01:32:00,
2013-01-23 17:37:00,67.3,45.2,30.13,SE,133,0.0,0.0,45,0.00,,,0.00,WUHU216WMR968SP,2013-01-24 01:37:00,
2013-01-23 17:42:00,67.3,45.2,30.13,SE,136,0.0,0.0,45,0.00,,,0.00,WUHU216WMR968SP,2013-01-24 01:42:00,
2013-01-23 17:47:00,67.1,45.0,30.13,SSE,150,0.0,0.0,45,0.00,,,0.00,WUHU216WMR968SP,2013-01-24 01:47:00,
2013-01-23 17:52:00,67.1,45.0,30.13,SSE,160,0.0,0.0,45,0.00,,,0.00,WUHU216WMR968SP,2013-01-24 01:52:00,
2013-01-23 17:57:00,67.1,45.0,30.13,SSE,160,0.0,0.0,45,0.00,,,0.00,WUHU216WMR968SP,2013-01-24 01:57:00,
2013-01-23 18:02:00,66.9,44.8,30.13,South,181,0.0,0.0,45,0.00,,,0.00,WUHU216WMR968SP,2013-01-24 02:02:00,
2013-01-23 18:07:00,66.7,44.6,30.13,SW,226,0.0,0.0,45,0.00,,,0.00,WUHU216WMR968SP,2013-01-24 02:07:00,
2013-01-23 18:12:00,66.6,44.5,30.13,SSE,157,0.0,0.0,45,0.00,,,0.00,WUHU216WMR968SP,2013-01-24 02:12:00,
2013-01-23 18:17:00,66.6,44.5,30.13,SSE,152,0.0,0.0,45,0.00,,,0.00,WUHU216WMR968SP,2013-01-24 02:17:00,
2013-01-23 18:22:00,66.4,44.4,30.16,SSE,152,0.0,0.0,45,0.00,,,0.00,WUHU216WMR968SP,2013-01-24 02:22:00,
2013-01-23 18:27:00,66.4,44.4,30.16,SSE,152,0.0,0.0,45,0.00,,,0.00,WUHU216WMR968SP,2013-01-24 02:27:00,
2013-01-23 18:32:00,66.2,44.2,30.16,SSE,152,0.0,0.0,45,0.00,,,0.00,WUHU216WMR968SP,2013-01-24 02:32:00,
2013-01-23 18:37:00,65.8,43.8,30.16,SSE,152,0.0,0.0,45,0.00,,,0.00,WUHU216WMR968SP,2013-01-24 02:37:00,
2013-01-23 18:42:00,65.7,43.7,30.16,SSE,152,0.0,0.0,45,0.00,,,0.00,WUHU216WMR968SP,2013-01-24 02:42:00,
2013-01-23 18:47:00,65.3,43.4,30.16,SE,138,0.0,2.7,45,0.00,,,0.00,WUHU216WMR968SP,2013-01-24 02:47:00,
2013-01-23 18:52:00,65.3,43.4,30.16,SE,133,0.0,2.7,45,0.00,,,0.00,WUHU216WMR968SP,2013-01-24 02:52:00,
2013-01-23 18:57:00,65.1,43.2,30.16,SE,124,0.0,0.0,45,0.00,,,0.00,WUHU216WMR968SP,2013-01-24 02:57:00,
2013-01-23 19:02:00,65.3,43.4,30.16,East,84,2.2,3.1,45,0.00,,,0.00,WUHU216WMR968SP,2013-01-24 03:02:00,
2013-01-23 19:07:00,65.3,43.4,30.16,East,86,0.0,3.1,45,0.00,,,0.00,WUHU216WMR968SP,2013-01-24 03:07:00,
2013-01-23 19:12:00,65.1,43.2,30.16,East,90,0.0,2.7,45,0.00,,,0.00,WUHU216WMR968SP,2013-01-24 03:12:00,
2013-01-23 19:17:00,65.1,43.2,30.16,East,89,0.0,0.0,45,0.00,,,0.00,WUHU216WMR968SP,2013-01-24 03:17:00,
2013-01-23 19:22:00,65.1,43.2,30.16,East,89,0.0,0.0,45,0.00,,,0.00,WUHU216WMR968SP,2013-01-24 03:22:00,
2013-01-23 19:27:00,65.1,43.2,30.16,SE,129,0.0,3.1,45,0.00,,,0.00,WUHU216WMR968SP,2013-01-24 03:27:00,
2013-01-23 19:32:00,64.9,43.0,30.16,ESE,122,0.0,3.6,45,0.00,,,0.00,WUHU216WMR968SP,2013-01-24 03:32:00,
2013-01-23 19:37:00,64.9,43.0,30.16,ESE,123,0.0,3.6,45,0.00,,,0.00,WUHU216WMR968SP,2013-01-24 03:37:00,
2013-01-23 19:42:00,65.1,43.2,30.16,ESE,122,0.0,0.0,45,0.00,,,0.00,WUHU216WMR968SP,2013-01-24 03:42:00,
2013-01-23 19:47:00,64.9,43.0,30.16,ESE,123,0.0,0.0,45,0.00,,,0.00,WUHU216WMR968SP,2013-01-24 03:47:00,
2013-01-23 19:52:00,64.8,42.9,30.16,ESE,122,0.0,0.0,45,0.00,,,0.00,WUHU216WMR968SP,2013-01-24 03:52:00,
2013-01-23 19:57:00,64.4,42.5,30.16,ESE,122,0.0,0.0,45,0.00,,,0.00,WUHU216WMR968SP,2013-01-24 03:57:00,
2013-01-23 20:02:00,64.2,42.9,30.16,ESE,123,0.0,0.0,46,0.00,,,0.00,WUHU216WMR968SP,2013-01-24 04:02:00,
2013-01-23 20:07:00,64.2,42.9,30.13,ESE,123,0.0,0.0,46,0.00,,,0.00,WUHU216WMR968SP,2013-01-24 04:07:00,
2013-01-23 20:12:00,64.2,42.9,30.13,ESE,122,0.0,0.0,46,0.00,,,0.00,WUHU216WMR968SP,2013-01-24 04:12:00,
2013-01-23 20:17:00,64.2,42.9,30.13,ESE,122,0.0,0.0,46,0.00,,,0.00,WUHU216WMR968SP,2013-01-24 04:17:00,
2013-01-23 20:22:00,63.9,42.7,30.13,ESE,123,0.0,0.0,46,0.00,,,0.00,WUHU216WMR968SP,2013-01-24 04:22:00,
2013-01-23 20:27:00,63.7,42.5,30.13,ESE,122,0.0,0.0,46,0.00,,,0.00,WUHU216WMR968SP,2013-01-24 04:27:00,
2013-01-23 20:32:00,63.5,42.3,30.13,ESE,122,0.0,0.0,46,0.00,,,0.00,WUHU216WMR968SP,2013-01-24 04:32:00,
2013-01-23 20:37:00,63.7,42.5,30.13,WSW,249,0.0,3.1,46,0.00,,,0.00,WUHU216WMR968SP,2013-01-24 04:37:00,
2013-01-23 20:42:00,63.5,42.3,30.13,WSW,249,0.0,3.1,46,0.00,,,0.00,WUHU216WMR968SP,2013-01-24 04:42:00,
2013-01-23 20:47:00,63.1,41.9,30.13,WSW,248,0.0,3.1,46,0.00,,,0.00,WUHU216WMR968SP,2013-01-24 04:47:00,
2013-01-23 20:52:00,63.0,41.8,30.13,SW,225,0.0,3.6,46,0.00,,,0.00,WUHU216WMR968SP,2013-01-24 04:52:00,
2013-01-23 20:57:00,63.0,41.8,30.13,WSW,252,2.7,3.6,46,0.00,,,0.00,WUHU216WMR968SP,2013-01-24 04:57:00,
2013-01-23 21:02:00,62.8,41.7,30.13,WSW,241,2.2,3.6,46,0.00,,,0.00,WUHU216WMR968SP,2013-01-24 05:02:00,
2013-01-23 21:07:00,62.8,41.7,30.16,WSW,241,0.0,3.6,46,0.00,,,0.00,WUHU216WMR968SP,2013-01-24 05:07:00,
2013-01-23 21:12:00,62.8,41.7,30.16,WSW,241,0.0,0.0,46,0.00,,,0.00,WUHU216WMR968SP,2013-01-24 05:12:00,
2013-01-23 21:17:00,62.8,41.7,30.16,WSW,237,0.0,0.0,46,0.00,,,0.00,WUHU216WMR968SP,2013-01-24 05:17:00,
2013-01-23 21:22:00,62.8,41.7,30.16,SW,227,0.0,0.0,46,0.00,,,0.00,WUHU216WMR968SP,2013-01-24 05:22:00,
2013-01-23 21:27:00,63.0,41.8,30.16,SW,227,0.0,0.0,46,0.00,,,0.00,WUHU216WMR968SP,2013-01-24 05:27:00,
2013-01-23 21:32:00,63.0,41.8,30.16,SW,227,0.0,0.0,46,0.00,,,0.00,WUHU216WMR968SP,2013-01-24 05:32:00,
2013-01-23 21:37:00,63.0,41.8,30.16,SW,227,0.0,0.0,46,0.00,,,0.00,WUHU216WMR968SP,2013-01-24 05:37:00,
2013-01-23 21:43:00,62.6,41.5,30.16,SW,227,0.0,0.0,46,0.00,,,0.00,WUHU216WMR968SP,2013-01-24 05:43:00,
2013-01-23 21:48:00,62.1,41.0,30.16,NNE,17,0.0,3.6,46,0.00,,,0.00,WUHU216WMR968SP,2013-01-24 05:48:00,
2013-01-23 21:53:00,61.9,40.8,30.16,NNE,17,0.0,3.6,46,0.00,,,0.00,WUHU216WMR968SP,2013-01-24 05:53:00,
2013-01-23 21:58:00,61.7,40.7,30.16,NNE,17,0.0,0.0,46,0.00,,,0.00,WUHU216WMR968SP,2013-01-24 05:58:00,
2013-01-23 22:03:00,61.3,40.3,30.16,North,9,0.0,0.0,46,0.00,,,0.00,WUHU216WMR968SP,2013-01-24 06:03:00,
2013-01-23 22:08:00,60.8,39.8,30.16,North,9,0.0,0.0,46,0.00,,,0.00,WUHU216WMR968SP,2013-01-24 06:08:00,
2013-01-23 22:13:00,60.6,40.2,30.16,North,3,0.0,2.2,47,0.00,,,0.00,WUHU216WMR968SP,2013-01-24 06:13:00,
2013-01-23 22:18:00,60.6,40.2,30.16,North,3,0.0,2.2,47,0.00,,,0.00,WUHU216WMR968SP,2013-01-24 06:18:00,
2013-01-23 22:23:00,60.6,40.2,30.19,North,3,0.0,0.0,47,0.00,,,0.00,WUHU216WMR968SP,2013-01-24 06:23:00,
2013-01-23 22:28:00,60.6,40.2,30.19,North,3,0.0,0.0,47,0.00,,,0.00,WUHU216WMR968SP,2013-01-24 06:28:00,
2013-01-23 22:33:00,60.6,40.2,30.19,North,3,0.0,0.0,47,0.00,,,0.00,WUHU216WMR968SP,2013-01-24 06:33:00,
2013-01-23 22:38:00,60.6,40.2,30.19,North,3,0.0,0.0,47,0.00,,,0.00,WUHU216WMR968SP,2013-01-24 06:38:00,
2013-01-23 22:43:00,60.4,40.0,30.19,North,3,0.0,0.0,47,0.00,,,0.00,WUHU216WMR968SP,2013-01-24 06:43:00,
2013-01-23 22:48:00,60.4,40.0,30.19,North,3,0.0,0.0,47,0.00,,,0.00,WUHU216WMR968SP,2013-01-24 06:48:00,
2013-01-23 22:53:00,60.3,41.0,30.22,North,357,0.0,0.0,49,0.00,,,0.00,WUHU216WMR968SP,2013-01-24 06:53:00,
2013-01-23 22:58:00,60.1,40.9,30.22,North,357,0.0,0.0,49,0.00,,,0.00,WUHU216WMR968SP,2013-01-24 06:58:00,
2013-01-23 23:03:00,60.1,40.9,30.22,North,357,0.0,0.0,49,0.00,,,0.00,WUHU216WMR968SP,2013-01-24 07:03:00,
2013-01-23 23:08:00,60.1,40.9,30.19,North,357,0.0,0.0,49,0.00,,,0.00,WUHU216WMR968SP,2013-01-24 07:08:00,
2013-01-23 23:13:00,59.7,40.5,30.19,North,357,0.0,0.0,49,0.00,,,0.00,WUHU216WMR968SP,2013-01-24 07:13:00,
2013-01-23 23:18:00,59.5,41.9,30.19,North,357,0.0,0.0,52,0.00,,,0.00,WUHU216WMR968SP,2013-01-24 07:18:00,
2013-01-23 23:23:00,59.2,41.6,30.22,NNE,15,0.0,3.6,52,0.00,,,0.00,WUHU216WMR968SP,2013-01-24 07:23:00,
2013-01-23 23:28:00,58.8,42.3,30.22,North,353,2.2,3.6,54,0.00,,,0.00,WUHU216WMR968SP,2013-01-24 07:28:00,
2013-01-23 23:33:00,58.6,42.6,30.22,North,353,0.0,3.1,55,0.00,,,0.00,WUHU216WMR968SP,2013-01-24 07:33:00,
2013-01-23 23:38:00,58.5,42.5,30.22,North,353,0.0,2.7,55,0.00,,,0.00,WUHU216WMR968SP,2013-01-24 07:38:00,
2013-01-23 23:43:00,58.3,42.3,30.22,North,353,0.0,0.0,55,0.00,,,0.00,WUHU216WMR968SP,2013-01-24 07:43:00,
2013-01-23 23:48:00,58.1,42.6,30.22,North,353,0.0,0.0,56,0.00,,,0.00,WUHU216WMR968SP,2013-01-24 07:48:00,
2013-01-23 23:53:00,58.1,43.0,30.22,North,353,0.0,0.0,57,0.00,,,0.00,WUHU216WMR968SP,2013-01-24 07:53:00,
2013-01-23 23:58:00,58.1,43.0,30.22,North,353,0.0,0.0,57,0.00,,,0.00,WUHU216WMR968SP,2013-01-24 07:58:00,